Flugplatz Wipperfürth-Neye

Für EDKN sind keine METAR/TAF Berichte vorhanden.
Es werden die Flugwettermeldungen vom Flugplatz Cologne Bonn in 32 km Entfernung angezeigt.

Bericht für EDDK

vom 07.03. um 02:50 UTC

variable Windrichtung mit 2 kt

Sichtweite 10 km oder mehr

gute Sicht, keine Wolken < 5000 ft, keine CB, keine Wettererscheinungen (CAVOK)

Temperatur -4.0°C

Taupunkt -6.0°C

Luftfeuchtigkeit 86%

Luftdruck 1027 hPa

keine wesentliche Wetteränderung innerhalb den nächsten 2 Stunden zu erwarten

EDDK 070250Z VRB02KT CAVOK M04/M06 Q1027 NOSIG

Prognose für EDDK

vom 06.03. um 23:00 UTC

Zwischen 00:00 UTC und 09:00 UTC

Wind 4 kt aus 110°

Sichtweite 10 km oder mehr

keine signifikanten Wettererscheinungen

keine Wolken


Zwischen 09:00 und 12:00 UTC übergehend zu

Wind 7 kt aus 330°

Sichtweite 10 km oder mehr

keine signifikanten Wettererscheinungen

keine Wolken


Zwischen 18:00 und 20:00 UTC übergehend zu

variable Windrichtung mit 2 kt

Sichtweite 10 km oder mehr

keine signifikanten Wettererscheinungen

keine Wolken

TAF EDDK 062300Z 0700/0806 11004KT CAVOK BECMG 0709/0712 33007KT BECMG 0718/0720 VRB02KT
Impressum